Ginga — JJ4054 — position and weather

sailwx.info

Track history (hours):
 
Tides and Currents Weather Stations Pressure Air Temp Water Temp Dewpoint Dewpoint Depression Visibility Wind Speed Wind Dir Waves Ship Positions

Ginga

Last reported at 2014-Sep-19 20:30 UTC. Time now 2014-Sep-19 22:00 UTC.
Position N 34°11' E 135°01'.

Length 28 m; draft 1.6 m.

Type: Other ship. MMSI: 431301704.

Date/timePositionNaut miles runAvg speedWind from/ knotsBaromVisibWave heightAir tempDewpointWater temp
2014-Sep-19 20:30N 34°11' E 135°01'1313.9
2014-Sep-19 19:32N 34°24' E 135°01'1616.2
2014-Sep-19 18:33N 34°39' E 135°10'1 0.0
2014-Sep-19 02:24N 34°39' E 135°09'0 0.0
2014-Sep-18 06:17N 34°39' E 135°09'7 8.5
2014-Sep-18 05:27N 34°37' E 135°01'2 2.1
2014-Sep-18 04:33N 34°38' E 134°60'8 8.2
2014-Sep-18 03:33N 34°39' E 135°09'0 0.0
2014-Sep-17 21:08N 34°39' E 135°09'610.6
2014-Sep-17 20:34N 34°37' E 135°02'3 3.0
2014-Sep-17 19:33N 34°35' E 135°05'5 5.1
2014-Sep-17 18:34N 34°39' E 135°09'0 0.0
2014-Sep-17 07:33N 34°39' E 135°09'5 4.7
2014-Sep-17 06:33N 34°36' E 135°05'7 7.1
2014-Sep-17 05:30N 34°36' E 134°56'6 1.8
2014-Sep-17 02:12N 34°38' E 135°03'4 5.4
2014-Sep-17 01:33N 34°38' E 134°59'8 8.2
2014-Sep-17 00:33N 34°34' E 135°08'5 4.8
2014-Sep-16 23:34N 34°38' E 135°10'1 0.0
2014-Sep-16 06:32N 34°39' E 135°09'11 7.8
2014-Sep-16 05:04N 34°36' E 134°56'1 0.8
2014-Sep-16 03:29N 34°36' E 134°58'7 6.9
2014-Sep-16 02:32N 34°36' E 135°06'3 3.5
2014-Sep-16 01:33N 34°34' E 135°02'3 2.9
2014-Sep-16 00:32N 34°37' E 135°02'6 6.1
2014-Sep-15 23:34N 34°35' E 135°09'1 0.0
2014-Sep-13 21:34N 34°34' E 135°08'6 1.5
2014-Sep-13 17:33N 34°37' E 135°03'2 2.4
2014-Sep-13 16:33N 34°36' E 135°05'5 5.1
2014-Sep-13 15:33N 34°39' E 135°09'0 0.0
2014-Sep-13 04:22N 34°39' E 135°09'7 8.8
2014-Sep-13 03:32N 34°37' E 135°01'1 1.2
2014-Sep-13 02:32N 34°38' E 135°01'7 7.5
2014-Sep-13 01:34N 34°39' E 135°09'2 0.1
2014-Sep-12 01:33N 34°38' E 135°08'6 5.6
2014-Sep-12 00:29N 34°37' E 135°01'7 7.5
2014-Sep-11 23:33N 34°37' E 135°09'2 1.7
2014-Sep-11 22:33N 34°39' E 135°09'0 0.0
2014-Sep-11 03:24N 34°39' E 135°09'6 7.5
2014-Sep-11 02:34N 34°36' E 135°03'2 1.6
2014-Sep-11 01:31N 34°38' E 135°02'1 0.2
2014-Sep-10 21:24N 34°37' E 135°03'1 1.2
2014-Sep-10 20:33N 34°37' E 135°03'5 5.4
2014-Sep-10 19:34N 34°34' E 135°08'7 6.6
2014-Sep-10 18:33N 34°37' E 135°01'6 6.4
2014-Sep-10 17:33N 34°37' E 135°09'2 0.2
2014-Sep-10 03:16N 34°39' E 135°09'7 9.6
2014-Sep-10 02:33N 34°37' E 135°02'4 4.2
2014-Sep-10 01:31N 34°35' E 134°57'2 1.5
2014-Sep-10 00:05N 34°37' E 134°57'610.5
2014-Sep-09 23:33N 34°36' E 135°04'6 5.5
2014-Sep-09 22:33N 34°39' E 135°10'  
Track history (hours):
 
Tides and Currents Weather Stations Pressure Air Temp Water Temp Dewpoint Dewpoint Depression Visibility Wind Speed Wind Dir Waves Ship Positions

Ginga

Last reported at 2014-Sep-19 20:30 UTC. Time now 2014-Sep-19 22:00 UTC.
Position N 34°11' E 135°01'.

Length 28 m; draft 1.6 m.

Type: Other ship. MMSI: 431301704.

Date/timePositionNaut miles runAvg speedWind from/ knotsBaromVisibWave heightAir tempDewpointWater temp
2014-Sep-19 20:30N 34°11' E 135°01'1313.9
2014-Sep-19 19:32N 34°24' E 135°01'1616.2
2014-Sep-19 18:33N 34°39' E 135°10'1 0.0
2014-Sep-19 02:24N 34°39' E 135°09'0 0.0
2014-Sep-18 06:17N 34°39' E 135°09'7 8.5
2014-Sep-18 05:27N 34°37' E 135°01'2 2.1
2014-Sep-18 04:33N 34°38' E 134°60'8 8.2
2014-Sep-18 03:33N 34°39' E 135°09'0 0.0
2014-Sep-17 21:08N 34°39' E 135°09'610.6
2014-Sep-17 20:34N 34°37' E 135°02'3 3.0
2014-Sep-17 19:33N 34°35' E 135°05'5 5.1
2014-Sep-17 18:34N 34°39' E 135°09'0 0.0
2014-Sep-17 07:33N 34°39' E 135°09'5 4.7
2014-Sep-17 06:33N 34°36' E 135°05'7 7.1
2014-Sep-17 05:30N 34°36' E 134°56'6 1.8
2014-Sep-17 02:12N 34°38' E 135°03'4 5.4
2014-Sep-17 01:33N 34°38' E 134°59'8 8.2
2014-Sep-17 00:33N 34°34' E 135°08'5 4.8
2014-Sep-16 23:34N 34°38' E 135°10'1 0.0
2014-Sep-16 06:32N 34°39' E 135°09'11 7.8
2014-Sep-16 05:04N 34°36' E 134°56'1 0.8
2014-Sep-16 03:29N 34°36' E 134°58'7 6.9
2014-Sep-16 02:32N 34°36' E 135°06'3 3.5
2014-Sep-16 01:33N 34°34' E 135°02'3 2.9
2014-Sep-16 00:32N 34°37' E 135°02'6 6.1
2014-Sep-15 23:34N 34°35' E 135°09'1 0.0
2014-Sep-13 21:34N 34°34' E 135°08'6 1.5
2014-Sep-13 17:33N 34°37' E 135°03'2 2.4
2014-Sep-13 16:33N 34°36' E 135°05'5 5.1
2014-Sep-13 15:33N 34°39' E 135°09'0 0.0
2014-Sep-13 04:22N 34°39' E 135°09'7 8.8
2014-Sep-13 03:32N 34°37' E 135°01'1 1.2
2014-Sep-13 02:32N 34°38' E 135°01'7 7.5
2014-Sep-13 01:34N 34°39' E 135°09'2 0.1
2014-Sep-12 01:33N 34°38' E 135°08'6 5.6
2014-Sep-12 00:29N 34°37' E 135°01'7 7.5
2014-Sep-11 23:33N 34°37' E 135°09'2 1.7
2014-Sep-11 22:33N 34°39' E 135°09'0 0.0
2014-Sep-11 03:24N 34°39' E 135°09'6 7.5
2014-Sep-11 02:34N 34°36' E 135°03'2 1.6
2014-Sep-11 01:31N 34°38' E 135°02'1 0.2
2014-Sep-10 21:24N 34°37' E 135°03'1 1.2
2014-Sep-10 20:33N 34°37' E 135°03'5 5.4
2014-Sep-10 19:34N 34°34' E 135°08'7 6.6
2014-Sep-10 18:33N 34°37' E 135°01'6 6.4
2014-Sep-10 17:33N 34°37' E 135°09'2 0.2
2014-Sep-10 03:16N 34°39' E 135°09'7 9.6
2014-Sep-10 02:33N 34°37' E 135°02'4 4.2
2014-Sep-10 01:31N 34°35' E 134°57'2 1.5
2014-Sep-10 00:05N 34°37' E 134°57'610.5
2014-Sep-09 23:33N 34°36' E 135°04'6 5.5
2014-Sep-09 22:33N 34°39' E 135°10'  

Dump ship's entire track history